sensor_id;sensor_type;location;lat;lon;timestamp;temperature;humidity
40622;DHT22;26324;52.040;11.528;2023-02-07T00:01:44;-3273.70;88.20
40622;DHT22;26324;52.040;11.528;2023-02-07T00:04:12;-3273.90;88.10
40622;DHT22;26324;52.040;11.528;2023-02-07T00:06:40;-3273.70;87.40
40622;DHT22;26324;52.040;11.528;2023-02-07T00:09:09;-3273.70;87.50
40622;DHT22;26324;52.040;11.528;2023-02-07T00:11:37;-3273.60;87.50
40622;DHT22;26324;52.040;11.528;2023-02-07T00:14:09;-3273.50;88.00
40622;DHT22;26324;52.040;11.528;2023-02-07T00:16:37;-3273.40;88.30
40622;DHT22;26324;52.040;11.528;2023-02-07T00:19:05;-3273.40;88.40
40622;DHT22;26324;52.040;11.528;2023-02-07T00:21:32;-3273.30;88.40
40622;DHT22;26324;52.040;11.528;2023-02-07T00:24:00;-3273.30;88.50
40622;DHT22;26324;52.040;11.528;2023-02-07T00:26:28;-3273.40;88.70
40622;DHT22;26324;52.040;11.528;2023-02-07T00:28:56;-3273.40;88.50
40622;DHT22;26324;52.040;11.528;2023-02-07T00:31:31;-3273.40;88.30
40622;DHT22;26324;52.040;11.528;2023-02-07T00:34:02;-3273.50;88.40
40622;DHT22;26324;52.040;11.528;2023-02-07T00:36:31;-3273.40;88.00
40622;DHT22;26324;52.040;11.528;2023-02-07T00:39:02;-3273.50;88.20
40622;DHT22;26324;52.040;11.528;2023-02-07T00:41:30;-3273.60;87.90
40622;DHT22;26324;52.040;11.528;2023-02-07T00:43:59;-3273.80;87.30
40622;DHT22;26324;52.040;11.528;2023-02-07T00:46:26;-3273.90;86.90
40622;DHT22;26324;52.040;11.528;2023-02-07T00:48:54;-3273.80;86.40
40622;DHT22;26324;52.040;11.528;2023-02-07T00:51:22;-3273.70;86.30
40622;DHT22;26324;52.040;11.528;2023-02-07T00:53:52;-3273.70;86.50
40622;DHT22;26324;52.040;11.528;2023-02-07T00:56:27;-3273.70;86.20
40622;DHT22;26324;52.040;11.528;2023-02-07T00:58:57;-3273.70;86.10
40622;DHT22;26324;52.040;11.528;2023-02-07T01:01:25;-3273.60;86.00
40622;DHT22;26324;52.040;11.528;2023-02-07T01:03:55;-3273.50;86.30
40622;DHT22;26324;52.040;11.528;2023-02-07T01:06:23;-3273.50;86.80
40622;DHT22;26324;52.040;11.528;2023-02-07T01:08:59;-3273.60;86.70
40622;DHT22;26324;52.040;11.528;2023-02-07T01:11:41;-3273.60;86.50
40622;DHT22;26324;52.040;11.528;2023-02-07T01:14:19;-3273.50;86.50
40622;DHT22;26324;52.040;11.528;2023-02-07T01:16:46;-3273.50;87.00
40622;DHT22;26324;52.040;11.528;2023-02-07T01:19:14;-3273.50;86.80
40622;DHT22;26324;52.040;11.528;2023-02-07T01:21:42;-3273.40;87.00
40622;DHT22;26324;52.040;11.528;2023-02-07T01:24:09;-3273.40;87.20
40622;DHT22;26324;52.040;11.528;2023-02-07T01:26:38;-3273.30;87.20
40622;DHT22;26324;52.040;11.528;2023-02-07T01:29:06;-3273.20;87.30
40622;DHT22;26324;52.040;11.528;2023-02-07T01:31:34;-3273.00;87.50
40622;DHT22;26324;52.040;11.528;2023-02-07T01:34:01;-3273.20;87.70
40622;DHT22;26324;52.040;11.528;2023-02-07T01:36:32;-3273.10;87.60
40622;DHT22;26324;52.040;11.528;2023-02-07T01:38:59;-3273.10;87.60
40622;DHT22;26324;52.040;11.528;2023-02-07T01:41:27;-3273.00;87.40
40622;DHT22;26324;52.040;11.528;2023-02-07T01:43:55;-3273.00;87.40
40622;DHT22;26324;52.040;11.528;2023-02-07T01:46:24;-3272.90;87.60
40622;DHT22;26324;52.040;11.528;2023-02-07T01:48:54;-3273.00;87.60
40622;DHT22;26324;52.040;11.528;2023-02-07T01:51:22;-3272.90;87.50
40622;DHT22;26324;52.040;11.528;2023-02-07T01:53:57;-3272.90;87.60
40622;DHT22;26324;52.040;11.528;2023-02-07T01:56:26;-3272.90;87.90
40622;DHT22;26324;52.040;11.528;2023-02-07T01:59:01;-3272.90;88.00
40622;DHT22;26324;52.040;11.528;2023-02-07T02:01:30;-3273.10;87.50
40622;DHT22;26324;52.040;11.528;2023-02-07T02:03:57;-3273.10;87.00
40622;DHT22;26324;52.040;11.528;2023-02-07T02:06:29;-3273.10;86.70
40622;DHT22;26324;52.040;11.528;2023-02-07T02:08:58;-3272.90;86.70
40622;DHT22;26324;52.040;11.528;2023-02-07T02:14:13;-3272.80;86.60
40622;DHT22;26324;52.040;11.528;2023-02-07T02:16:55;-3272.80;87.00
40622;DHT22;26324;52.040;11.528;2023-02-07T02:19:40;-3272.90;87.20
40622;DHT22;26324;52.040;11.528;2023-02-07T02:35:04;-3273.00;85.90
40622;DHT22;26324;52.040;11.528;2023-02-07T02:43:09;-3272.70;86.10
40622;DHT22;26324;52.040;11.528;2023-02-07T02:45:57;-3272.50;86.00
40622;DHT22;26324;52.040;11.528;2023-02-07T02:48:27;-3272.40;86.60
40622;DHT22;26324;52.040;11.528;2023-02-07T02:51:03;-3272.50;86.40
40622;DHT22;26324;52.040;11.528;2023-02-07T02:53:33;-3272.50;86.10
40622;DHT22;26324;52.040;11.528;2023-02-07T02:56:28;-3272.50;86.40
40622;DHT22;26324;52.040;11.528;2023-02-07T03:00:02;-3272.50;86.50
40622;DHT22;26324;52.040;11.528;2023-02-07T03:08:17;-3272.10;87.60
40622;DHT22;26324;52.040;11.528;2023-02-07T03:13:30;-3272.00;88.20
40622;DHT22;26324;52.040;11.528;2023-02-07T03:16:10;-3272.00;88.30
40622;DHT22;26324;52.040;11.528;2023-02-07T03:19:07;-3272.00;88.70
40622;DHT22;26324;52.040;11.528;2023-02-07T03:21:54;-3272.00;88.80
40622;DHT22;26324;52.040;11.528;2023-02-07T03:24:30;-3271.90;88.80
40622;DHT22;26324;52.040;11.528;2023-02-07T03:27:03;-3271.90;88.70
40622;DHT22;26324;52.040;11.528;2023-02-07T03:29:35;-3272.00;88.70
40622;DHT22;26324;52.040;11.528;2023-02-07T03:32:04;-3272.00;88.40
40622;DHT22;26324;52.040;11.528;2023-02-07T03:34:48;-3272.10;88.60
40622;DHT22;26324;52.040;11.528;2023-02-07T03:37:25;-3272.10;88.60
40622;DHT22;26324;52.040;11.528;2023-02-07T03:39:53;-3272.20;88.30
40622;DHT22;26324;52.040;11.528;2023-02-07T03:42:29;-3272.20;88.20
40622;DHT22;26324;52.040;11.528;2023-02-07T03:44:57;-3272.30;88.20
40622;DHT22;26324;52.040;11.528;2023-02-07T03:47:26;-3272.30;88.40
40622;DHT22;26324;52.040;11.528;2023-02-07T03:49:54;-3272.20;88.20
40622;DHT22;26324;52.040;11.528;2023-02-07T03:52:21;-3272.20;88.20
40622;DHT22;26324;52.040;11.528;2023-02-07T03:54:48;-3272.20;88.30
40622;DHT22;26324;52.040;11.528;2023-02-07T03:57:16;-3272.20;88.00
40622;DHT22;26324;52.040;11.528;2023-02-07T03:59:49;-3272.20;87.90
40622;DHT22;26324;52.040;11.528;2023-02-07T04:02:16;-3272.10;87.90
40622;DHT22;26324;52.040;11.528;2023-02-07T04:04:44;-3272.10;88.10
40622;DHT22;26324;52.040;11.528;2023-02-07T04:07:12;-3272.00;87.80
40622;DHT22;26324;52.040;11.528;2023-02-07T04:10:02;-3272.00;87.90
40622;DHT22;26324;52.040;11.528;2023-02-07T04:12:30;-3272.00;87.80
40622;DHT22;26324;52.040;11.528;2023-02-07T04:15:06;-3271.90;87.70
40622;DHT22;26324;52.040;11.528;2023-02-07T04:17:46;-3271.90;88.00
40622;DHT22;26324;52.040;11.528;2023-02-07T04:20:31;-3271.90;88.20
40622;DHT22;26324;52.040;11.528;2023-02-07T04:23:14;-3272.00;88.20
40622;DHT22;26324;52.040;11.528;2023-02-07T04:25:43;-3272.10;87.80
40622;DHT22;26324;52.040;11.528;2023-02-07T04:29:02;-3272.20;87.70
40622;DHT22;26324;52.040;11.528;2023-02-07T04:31:35;-3272.30;87.30
40622;DHT22;26324;52.040;11.528;2023-02-07T04:34:10;-3272.40;86.60
40622;DHT22;26324;52.040;11.528;2023-02-07T04:36:39;-3272.20;85.90
40622;DHT22;26324;52.040;11.528;2023-02-07T04:39:06;-3272.00;86.40
40622;DHT22;26324;52.040;11.528;2023-02-07T04:41:33;-3272.00;87.10
40622;DHT22;26324;52.040;11.528;2023-02-07T04:44:00;-3271.90;87.20
40622;DHT22;26324;52.040;11.528;2023-02-07T04:46:29;-3271.90;87.10
40622;DHT22;26324;52.040;11.528;2023-02-07T04:48:56;-3271.80;87.10
40622;DHT22;26324;52.040;11.528;2023-02-07T04:51:23;-3271.80;87.10
40622;DHT22;26324;52.040;11.528;2023-02-07T04:53:50;-3271.70;87.00
40622;DHT22;26324;52.040;11.528;2023-02-07T04:56:22;-3271.70;87.20
40622;DHT22;26324;52.040;11.528;2023-02-07T04:58:49;-3271.90;87.00
40622;DHT22;26324;52.040;11.528;2023-02-07T05:01:17;-3272.10;86.30
40622;DHT22;26324;52.040;11.528;2023-02-07T05:03:44;-3272.10;85.60
40622;DHT22;26324;52.040;11.528;2023-02-07T05:06:11;-3272.10;85.50
40622;DHT22;26324;52.040;11.528;2023-02-07T05:08:39;-3272.00;85.40
40622;DHT22;26324;52.040;11.528;2023-02-07T05:11:06;-3271.80;86.20
40622;DHT22;26324;52.040;11.528;2023-02-07T05:13:34;-3271.70;86.60
40622;DHT22;26324;52.040;11.528;2023-02-07T05:16:02;-3271.70;86.50
40622;DHT22;26324;52.040;11.528;2023-02-07T05:18:31;-3271.70;86.40
40622;DHT22;26324;52.040;11.528;2023-02-07T05:21:02;-3271.60;86.30
40622;DHT22;26324;52.040;11.528;2023-02-07T05:23:29;-3271.70;86.30
40622;DHT22;26324;52.040;11.528;2023-02-07T05:25:59;-3271.50;86.10
40622;DHT22;26324;52.040;11.528;2023-02-07T05:28:26;-3271.50;86.10
40622;DHT22;26324;52.040;11.528;2023-02-07T05:30:57;-3271.50;86.50
40622;DHT22;26324;52.040;11.528;2023-02-07T05:33:25;-3271.50;86.60
40622;DHT22;26324;52.040;11.528;2023-02-07T05:35:53;-3271.40;86.50
40622;DHT22;26324;52.040;11.528;2023-02-07T05:38:21;-3271.50;86.40
40622;DHT22;26324;52.040;11.528;2023-02-07T05:40:51;-3271.50;85.90
40622;DHT22;26324;52.040;11.528;2023-02-07T05:43:19;-3271.40;86.10
40622;DHT22;26324;52.040;11.528;2023-02-07T05:45:47;-3271.30;86.60
40622;DHT22;26324;52.040;11.528;2023-02-07T05:48:14;-3271.30;87.60
40622;DHT22;26324;52.040;11.528;2023-02-07T05:50:41;-3271.40;87.80
40622;DHT22;26324;52.040;11.528;2023-02-07T05:53:09;-3271.60;86.70
40622;DHT22;26324;52.040;11.528;2023-02-07T05:55:37;-3271.60;85.70
40622;DHT22;26324;52.040;11.528;2023-02-07T05:58:04;-3271.50;85.90
40622;DHT22;26324;52.040;11.528;2023-02-07T06:00:32;-3271.50;86.00
40622;DHT22;26324;52.040;11.528;2023-02-07T06:03:01;-3271.70;85.90
40622;DHT22;26324;52.040;11.528;2023-02-07T06:05:29;-3271.70;85.50
40622;DHT22;26324;52.040;11.528;2023-02-07T06:07:58;-3271.60;85.90
40622;DHT22;26324;52.040;11.528;2023-02-07T06:10:25;-3271.60;86.50
40622;DHT22;26324;52.040;11.528;2023-02-07T06:12:52;-3271.70;86.70
40622;DHT22;26324;52.040;11.528;2023-02-07T06:15:20;-3271.70;87.00
40622;DHT22;26324;52.040;11.528;2023-02-07T06:17:48;-3271.80;87.30
40622;DHT22;26324;52.040;11.528;2023-02-07T06:20:16;-3271.90;87.60
40622;DHT22;26324;52.040;11.528;2023-02-07T06:22:43;-3271.90;87.70
40622;DHT22;26324;52.040;11.528;2023-02-07T06:25:12;-3272.00;88.10
40622;DHT22;26324;52.040;11.528;2023-02-07T06:27:40;-3272.00;88.20
40622;DHT22;26324;52.040;11.528;2023-02-07T06:30:10;-3272.10;88.50
40622;DHT22;26324;52.040;11.528;2023-02-07T06:32:42;-3272.20;88.10
40622;DHT22;26324;52.040;11.528;2023-02-07T06:35:09;-3272.10;88.40
40622;DHT22;26324;52.040;11.528;2023-02-07T06:37:36;-3272.20;88.50
40622;DHT22;26324;52.040;11.528;2023-02-07T06:40:04;-3272.30;88.70
40622;DHT22;26324;52.040;11.528;2023-02-07T06:42:31;-3272.40;88.70
40622;DHT22;26324;52.040;11.528;2023-02-07T06:44:58;-3272.40;88.70
40622;DHT22;26324;52.040;11.528;2023-02-07T06:47:25;-3272.30;88.90
40622;DHT22;26324;52.040;11.528;2023-02-07T06:49:53;-3272.30;89.50
40622;DHT22;26324;52.040;11.528;2023-02-07T06:52:20;-3272.40;89.80
40622;DHT22;26324;52.040;11.528;2023-02-07T06:54:47;-3272.40;89.70
40622;DHT22;26324;52.040;11.528;2023-02-07T06:57:14;-3272.40;89.90
40622;DHT22;26324;52.040;11.528;2023-02-07T06:59:44;-3272.50;89.70
40622;DHT22;26324;52.040;11.528;2023-02-07T07:02:11;-3272.30;89.60
40622;DHT22;26324;52.040;11.528;2023-02-07T07:04:38;-3272.30;90.00
40622;DHT22;26324;52.040;11.528;2023-02-07T07:07:06;-3272.20;89.90
40622;DHT22;26324;52.040;11.528;2023-02-07T07:09:34;-3272.20;90.20
40622;DHT22;26324;52.040;11.528;2023-02-07T07:12:01;-3272.20;90.30
40622;DHT22;26324;52.040;11.528;2023-02-07T07:14:30;-3272.30;90.10
40622;DHT22;26324;52.040;11.528;2023-02-07T07:16:58;-3272.20;89.80
40622;DHT22;26324;52.040;11.528;2023-02-07T07:19:26;-3272.00;89.50
40622;DHT22;26324;52.040;11.528;2023-02-07T07:21:53;-3272.00;89.70
40622;DHT22;26324;52.040;11.528;2023-02-07T07:24:21;-3272.00;90.00
40622;DHT22;26324;52.040;11.528;2023-02-07T07:26:48;-3272.20;90.30
40622;DHT22;26324;52.040;11.528;2023-02-07T07:29:17;-3272.30;90.10
40622;DHT22;26324;52.040;11.528;2023-02-07T07:31:45;-3272.40;89.90
40622;DHT22;26324;52.040;11.528;2023-02-07T07:34:13;-3272.40;89.90
40622;DHT22;26324;52.040;11.528;2023-02-07T07:36:40;-3272.50;89.70
40622;DHT22;26324;52.040;11.528;2023-02-07T07:39:08;-3272.60;89.80
40622;DHT22;26324;52.040;11.528;2023-02-07T07:41:36;-3272.50;89.50
40622;DHT22;26324;52.040;11.528;2023-02-07T07:44:04;-3272.50;89.60
40622;DHT22;26324;52.040;11.528;2023-02-07T07:46:31;-3272.40;89.20
40622;DHT22;26324;52.040;11.528;2023-02-07T07:48:58;-3272.50;89.50
40622;DHT22;26324;52.040;11.528;2023-02-07T07:51:26;-3272.40;89.30
40622;DHT22;26324;52.040;11.528;2023-02-07T07:53:53;-3272.30;89.20
40622;DHT22;26324;52.040;11.528;2023-02-07T07:56:20;-3272.20;89.50
40622;DHT22;26324;52.040;11.528;2023-02-07T07:58:48;-3272.30;90.00
40622;DHT22;26324;52.040;11.528;2023-02-07T08:01:16;-3272.30;89.80
40622;DHT22;26324;52.040;11.528;2023-02-07T08:03:43;-3272.40;89.90
40622;DHT22;26324;52.040;11.528;2023-02-07T08:06:10;-3272.30;89.80
40622;DHT22;26324;52.040;11.528;2023-02-07T08:08:38;-3272.30;90.00
40622;DHT22;26324;52.040;11.528;2023-02-07T08:11:07;-3272.30;89.90
40622;DHT22;26324;52.040;11.528;2023-02-07T08:13:35;-3272.40;90.20
40622;DHT22;26324;52.040;11.528;2023-02-07T08:16:04;-3272.50;90.20
40622;DHT22;26324;52.040;11.528;2023-02-07T08:18:34;-3272.60;90.10
40622;DHT22;26324;52.040;11.528;2023-02-07T08:21:02;-3272.60;90.40
40622;DHT22;26324;52.040;11.528;2023-02-07T08:23:29;-3272.80;90.50
40622;DHT22;26324;52.040;11.528;2023-02-07T08:25:58;-3272.90;90.30
40622;DHT22;26324;52.040;11.528;2023-02-07T08:28:26;-3272.80;90.20
40622;DHT22;26324;52.040;11.528;2023-02-07T08:30:53;-3272.80;90.10
40622;DHT22;26324;52.040;11.528;2023-02-07T08:33:21;-3272.70;90.40
40622;DHT22;26324;52.040;11.528;2023-02-07T08:35:49;-3272.70;90.50
40622;DHT22;26324;52.040;11.528;2023-02-07T08:38:17;-3272.70;90.60
40622;DHT22;26324;52.040;11.528;2023-02-07T08:40:45;-3272.80;90.80
40622;DHT22;26324;52.040;11.528;2023-02-07T08:43:13;-3272.90;91.10
40622;DHT22;26324;52.040;11.528;2023-02-07T08:45:45;-3272.90;90.90
40622;DHT22;26324;52.040;11.528;2023-02-07T08:48:14;-3272.90;90.90
40622;DHT22;26324;52.040;11.528;2023-02-07T08:50:41;-3273.10;91.00
40622;DHT22;26324;52.040;11.528;2023-02-07T08:53:08;-3273.20;91.10
40622;DHT22;26324;52.040;11.528;2023-02-07T08:55:39;-3273.40;91.30
40622;DHT22;26324;52.040;11.528;2023-02-07T08:58:09;-3273.50;90.80
40622;DHT22;26324;52.040;11.528;2023-02-07T09:00:36;-3273.60;91.30
40622;DHT22;26324;52.040;11.528;2023-02-07T09:03:05;-3273.60;90.60
40622;DHT22;26324;52.040;11.528;2023-02-07T09:05:32;-3273.70;91.00
40622;DHT22;26324;52.040;11.528;2023-02-07T09:08:00;-3273.60;90.60
40622;DHT22;26324;52.040;11.528;2023-02-07T09:10:28;-3273.60;90.90
40622;DHT22;26324;52.040;11.528;2023-02-07T09:12:55;-3273.50;90.80
40622;DHT22;26324;52.040;11.528;2023-02-07T09:15:23;-3273.50;90.90
40622;DHT22;26324;52.040;11.528;2023-02-07T09:17:50;-3273.60;90.90
40622;DHT22;26324;52.040;11.528;2023-02-07T09:20:17;-3273.60;91.10
40622;DHT22;26324;52.040;11.528;2023-02-07T09:22:45;-3273.70;91.10
40622;DHT22;26324;52.040;11.528;2023-02-07T09:25:31;-3273.70;90.80
40622;DHT22;26324;52.040;11.528;2023-02-07T09:27:58;-3273.70;91.20
40622;DHT22;26324;52.040;11.528;2023-02-07T09:30:25;-3274.00;91.50
40622;DHT22;26324;52.040;11.528;2023-02-07T09:32:53;-3274.30;91.40
40622;DHT22;26324;52.040;11.528;2023-02-07T09:35:20;-3274.30;91.00
40622;DHT22;26324;52.040;11.528;2023-02-07T09:37:47;-3274.20;90.70
40622;DHT22;26324;52.040;11.528;2023-02-07T09:40:17;-3274.20;90.70
40622;DHT22;26324;52.040;11.528;2023-02-07T09:45:35;-3274.00;90.60
40622;DHT22;26324;52.040;11.528;2023-02-07T09:48:13;-3274.00;90.80
40622;DHT22;26324;52.040;11.528;2023-02-07T09:50:48;-3274.20;91.10
40622;DHT22;26324;52.040;11.528;2023-02-07T09:53:40;-3274.40;91.30
40622;DHT22;26324;52.040;11.528;2023-02-07T09:56:09;-3274.40;90.90
40622;DHT22;26324;52.040;11.528;2023-02-07T09:58:45;-3274.60;91.30
40622;DHT22;26324;52.040;11.528;2023-02-07T10:01:26;-3274.60;91.00
40622;DHT22;26324;52.040;11.528;2023-02-07T10:06:47;-3275.00;91.10
40622;DHT22;26324;52.040;11.528;2023-02-07T10:09:18;-3275.00;90.20
40622;DHT22;26324;52.040;11.528;2023-02-07T10:12:00;-3274.70;89.50
40622;DHT22;26324;52.040;11.528;2023-02-07T10:14:50;-3274.80;90.40
40622;DHT22;26324;52.040;11.528;2023-02-07T10:23:44;-3275.10;90.80
40622;DHT22;26324;52.040;11.528;2023-02-07T10:31:15;-3274.90;89.30
40622;DHT22;26324;52.040;11.528;2023-02-07T10:33:54;-3274.80;89.80
40622;DHT22;26324;52.040;11.528;2023-02-07T10:36:23;-3275.00;90.50
40622;DHT22;26324;52.040;11.528;2023-02-07T10:41:40;-3274.80;90.10
40622;DHT22;26324;52.040;11.528;2023-02-07T10:44:16;-3274.90;90.20
40622;DHT22;26324;52.040;11.528;2023-02-07T10:46:46;-3274.90;90.40
40622;DHT22;26324;52.040;11.528;2023-02-07T10:49:20;-3274.90;90.50
40622;DHT22;26324;52.040;11.528;2023-02-07T10:51:58;-3275.00;90.50
40622;DHT22;26324;52.040;11.528;2023-02-07T10:54:25;-3275.10;90.90
40622;DHT22;26324;52.040;11.528;2023-02-07T10:57:00;-3275.40;91.20
40622;DHT22;26324;52.040;11.528;2023-02-07T10:59:40;-3275.40;89.90
40622;DHT22;26324;52.040;11.528;2023-02-07T11:04:56;-3275.90;90.40
40622;DHT22;26324;52.040;11.528;2023-02-07T11:07:25;-3275.80;89.60
40622;DHT22;26324;52.040;11.528;2023-02-07T11:12:53;-3275.70;88.90
40622;DHT22;26324;52.040;11.528;2023-02-07T11:15:23;-3276.00;89.80
40622;DHT22;26324;52.040;11.528;2023-02-07T11:17:55;-3276.20;89.90
40622;DHT22;26324;52.040;11.528;2023-02-07T11:20:33;-3276.40;89.70
40622;DHT22;26324;52.040;11.528;2023-02-07T11:23:06;-3276.40;88.60
40622;DHT22;26324;52.040;11.528;2023-02-07T11:25:40;-3276.50;89.20
40622;DHT22;26324;52.040;11.528;2023-02-07T11:28:18;-3276.60;88.70
40622;DHT22;26324;52.040;11.528;2023-02-07T11:30:46;-3276.60;87.80
40622;DHT22;26324;52.040;11.528;2023-02-07T11:33:20;0.00;88.20
40622;DHT22;26324;52.040;11.528;2023-02-07T11:36:19;0.00;87.60
40622;DHT22;26324;52.040;11.528;2023-02-07T11:38:59;0.10;87.40
40622;DHT22;26324;52.040;11.528;2023-02-07T11:41:30;0.10;85.90
40622;DHT22;26324;52.040;11.528;2023-02-07T11:44:00;0.00;85.90
40622;DHT22;26324;52.040;11.528;2023-02-07T11:46:38;0.00;85.40
40622;DHT22;26324;52.040;11.528;2023-02-07T11:49:07;-3276.50;85.80
40622;DHT22;26324;52.040;11.528;2023-02-07T11:51:44;-3276.50;86.20
40622;DHT22;26324;52.040;11.528;2023-02-07T11:54:13;-3276.30;85.10
40622;DHT22;26324;52.040;11.528;2023-02-07T11:56:43;-3276.40;86.20
40622;DHT22;26324;52.040;11.528;2023-02-07T11:59:17;-3276.50;85.80
40622;DHT22;26324;52.040;11.528;2023-02-07T12:01:50;-3276.60;85.60
40622;DHT22;26324;52.040;11.528;2023-02-07T12:04:24;0.00;85.20
40622;DHT22;26324;52.040;11.528;2023-02-07T12:09:38;-3276.70;84.60
40622;DHT22;26324;52.040;11.528;2023-02-07T12:12:12;-3276.70;85.20
40622;DHT22;26324;52.040;11.528;2023-02-07T12:14:52;0.00;85.10
40622;DHT22;26324;52.040;11.528;2023-02-07T12:17:26;0.10;84.70
40622;DHT22;26324;52.040;11.528;2023-02-07T12:20:02;0.20;83.90
40622;DHT22;26324;52.040;11.528;2023-02-07T12:22:37;0.20;84.00
40622;DHT22;26324;52.040;11.528;2023-02-07T12:25:21;0.20;83.60
40622;DHT22;26324;52.040;11.528;2023-02-07T12:27:52;0.10;83.10
40622;DHT22;26324;52.040;11.528;2023-02-07T12:30:37;0.20;83.20
40622;DHT22;26324;52.040;11.528;2023-02-07T12:33:16;0.20;83.30
40622;DHT22;26324;52.040;11.528;2023-02-07T12:36:13;0.20;83.10
40622;DHT22;26324;52.040;11.528;2023-02-07T12:41:35;0.30;83.30
40622;DHT22;26324;52.040;11.528;2023-02-07T12:44:25;0.60;83.20
40622;DHT22;26324;52.040;11.528;2023-02-07T12:47:15;1.00;82.50
40622;DHT22;26324;52.040;11.528;2023-02-07T12:50:08;1.30;80.50
40622;DHT22;26324;52.040;11.528;2023-02-07T12:58:54;0.80;79.90
40622;DHT22;26324;52.040;11.528;2023-02-07T13:01:39;0.30;81.00
40622;DHT22;26324;52.040;11.528;2023-02-07T13:06:53;0.00;82.60
40622;DHT22;26324;52.040;11.528;2023-02-07T13:12:34;-3276.60;84.10
40622;DHT22;26324;52.040;11.528;2023-02-07T13:17:47;0.30;83.40
40622;DHT22;26324;52.040;11.528;2023-02-07T13:20:37;0.60;82.60
40622;DHT22;26324;52.040;11.528;2023-02-07T13:23:18;0.50;81.10
40622;DHT22;26324;52.040;11.528;2023-02-07T13:25:49;0.50;82.10
40622;DHT22;26324;52.040;11.528;2023-02-07T13:28:26;0.50;81.60
40622;DHT22;26324;52.040;11.528;2023-02-07T13:30:56;0.60;81.10
40622;DHT22;26324;52.040;11.528;2023-02-07T13:33:35;0.20;81.20
40622;DHT22;26324;52.040;11.528;2023-02-07T13:36:27;0.00;81.80
40622;DHT22;26324;52.040;11.528;2023-02-07T13:42:07;-3276.30;83.80
40622;DHT22;26324;52.040;11.528;2023-02-07T13:44:50;-3276.30;84.40
40622;DHT22;26324;52.040;11.528;2023-02-07T13:47:32;-3276.30;84.30
40622;DHT22;26324;52.040;11.528;2023-02-07T13:50:02;0.10;84.80
40622;DHT22;26324;52.040;11.528;2023-02-07T13:52:33;0.60;82.20
40622;DHT22;26324;52.040;11.528;2023-02-07T13:57:43;1.80;79.10
40622;DHT22;26324;52.040;11.528;2023-02-07T14:00:32;1.60;76.40
40622;DHT22;26324;52.040;11.528;2023-02-07T14:03:05;1.60;76.70
40622;DHT22;26324;52.040;11.528;2023-02-07T14:05:39;1.40;76.40
40622;DHT22;26324;52.040;11.528;2023-02-07T14:10:48;1.80;78.10
40622;DHT22;26324;52.040;11.528;2023-02-07T14:13:31;2.10;75.90
40622;DHT22;26324;52.040;11.528;2023-02-07T14:16:06;1.70;76.00
40622;DHT22;26324;52.040;11.528;2023-02-07T14:31:59;0.00;82.60
40622;DHT22;26324;52.040;11.528;2023-02-07T14:34:30;0.00;82.20
40622;DHT22;26324;52.040;11.528;2023-02-07T14:36:58;-3276.60;82.60
40622;DHT22;26324;52.040;11.528;2023-02-07T14:39:31;0.00;82.70
40622;DHT22;26324;52.040;11.528;2023-02-07T14:42:20;0.00;82.00
40622;DHT22;26324;52.040;11.528;2023-02-07T14:44:48;0.00;81.70
40622;DHT22;26324;52.040;11.528;2023-02-07T14:47:23;-3276.50;82.50
40622;DHT22;26324;52.040;11.528;2023-02-07T14:49:55;-3276.40;82.60
40622;DHT22;26324;52.040;11.528;2023-02-07T14:52:29;-3276.40;83.00
40622;DHT22;26324;52.040;11.528;2023-02-07T14:55:06;-3276.40;83.10
40622;DHT22;26324;52.040;11.528;2023-02-07T14:57:49;-3276.60;83.60
40622;DHT22;26324;52.040;11.528;2023-02-07T15:00:30;0.00;81.80
40622;DHT22;26324;52.040;11.528;2023-02-07T15:03:01;0.00;81.30
40622;DHT22;26324;52.040;11.528;2023-02-07T15:05:35;-3276.60;81.30
40622;DHT22;26324;52.040;11.528;2023-02-07T15:10:32;-3276.70;81.50
40622;DHT22;26324;52.040;11.528;2023-02-07T15:13:29;0.10;81.50
40622;DHT22;26324;52.040;11.528;2023-02-07T15:16:13;0.80;81.40
40622;DHT22;26324;52.040;11.528;2023-02-07T15:19:09;1.30;78.10
40622;DHT22;26324;52.040;11.528;2023-02-07T15:21:41;2.00;77.00
40622;DHT22;26324;52.040;11.528;2023-02-07T15:24:31;2.70;74.10
40622;DHT22;26324;52.040;11.528;2023-02-07T15:27:28;3.40;69.80
40622;DHT22;26324;52.040;11.528;2023-02-07T15:30:03;3.40;67.80
40622;DHT22;26324;52.040;11.528;2023-02-07T15:32:42;3.10;67.80
40622;DHT22;26324;52.040;11.528;2023-02-07T15:35:21;2.30;69.20
40622;DHT22;26324;52.040;11.528;2023-02-07T15:37:49;2.00;70.80
40622;DHT22;26324;52.040;11.528;2023-02-07T15:40:20;1.50;72.20
40622;DHT22;26324;52.040;11.528;2023-02-07T15:42:55;1.30;73.00
40622;DHT22;26324;52.040;11.528;2023-02-07T15:45:25;1.00;73.80
40622;DHT22;26324;52.040;11.528;2023-02-07T15:48:04;0.70;74.70
40622;DHT22;26324;52.040;11.528;2023-02-07T15:50:38;0.40;76.00
40622;DHT22;26324;52.040;11.528;2023-02-07T15:53:07;0.20;76.50
40622;DHT22;26324;52.040;11.528;2023-02-07T15:55:41;0.00;77.20
40622;DHT22;26324;52.040;11.528;2023-02-07T15:58:27;-3276.70;78.20
40622;DHT22;26324;52.040;11.528;2023-02-07T16:01:02;-3276.40;79.10
40622;DHT22;26324;52.040;11.528;2023-02-07T16:03:34;-3276.30;79.60
40622;DHT22;26324;52.040;11.528;2023-02-07T16:06:12;-3276.30;79.90
40622;DHT22;26324;52.040;11.528;2023-02-07T16:08:45;-3276.20;80.20
40622;DHT22;26324;52.040;11.528;2023-02-07T16:14:16;-3276.00;81.10
40622;DHT22;26324;52.040;11.528;2023-02-07T16:16:52;-3275.80;81.70
40622;DHT22;26324;52.040;11.528;2023-02-07T16:19:27;-3275.70;82.20
40622;DHT22;26324;52.040;11.528;2023-02-07T16:22:12;-3275.60;82.50
40622;DHT22;26324;52.040;11.528;2023-02-07T16:24:47;-3275.40;82.80
40622;DHT22;26324;52.040;11.528;2023-02-07T16:27:21;-3275.20;83.80
40622;DHT22;26324;52.040;11.528;2023-02-07T16:29:56;-3274.90;84.60
40622;DHT22;26324;52.040;11.528;2023-02-07T16:32:26;-3274.80;85.00
40622;DHT22;26324;52.040;11.528;2023-02-07T16:34:55;-3274.70;85.20
40622;DHT22;26324;52.040;11.528;2023-02-07T16:37:27;-3274.50;85.50
40622;DHT22;26324;52.040;11.528;2023-02-07T16:39:57;-3274.50;85.10
40622;DHT22;26324;52.040;11.528;2023-02-07T16:42:25;-3274.40;85.10
40622;DHT22;26324;52.040;11.528;2023-02-07T16:44:52;-3274.20;85.70
40622;DHT22;26324;52.040;11.528;2023-02-07T16:47:24;-3274.20;86.30
40622;DHT22;26324;52.040;11.528;2023-02-07T16:49:51;-3274.10;87.00
40622;DHT22;26324;52.040;11.528;2023-02-07T16:52:18;-3274.10;86.90
40622;DHT22;26324;52.040;11.528;2023-02-07T16:54:49;-3274.00;86.60
40622;DHT22;26324;52.040;11.528;2023-02-07T16:57:19;-3274.00;87.00